Time;durP1;ratioP1;P1;durP2;ratioP2;P2;SDS_P1;SDS_P2;PMS_P1;PMS_P2;Temp;Humidity;BMP_temperature;BMP_pressure;BME280_temperature;BME280_humidity;BME280_pressure;Samples;Min_cycle;Max_cycle;Signal;HPM_P1;HPM_P2
2022/08/31 00:04:56;;;;;;;;;5.00;5.00;;;;;;;;5121099;27;45330;-67
2022/08/31 00:07:23;;;;;;;;;10.33;6.67;;;;;;;;5119087;27;45271;-67
2022/08/31 00:09:48;;;;;;;;;5.67;5.33;;;;;;;;5120294;27;45751;-67
2022/08/31 00:12:14;;;;;;;;;8.67;7.00;;;;;;;;5119778;27;45545;-67
2022/08/31 00:14:39;;;;;;;;;6.00;6.00;;;;;;;;5109792;27;47442;-67
2022/08/31 00:17:05;;;;;;;;;5.67;5.67;;;;;;;;5120186;27;45657;-67
2022/08/31 00:19:30;;;;;;;;;7.67;7.33;;;;;;;;5123904;27;45346;-67
2022/08/31 00:21:56;;;;;;;;;4.33;4.33;;;;;;;;5112021;27;45595;-67
2022/08/31 00:24:21;;;;;;;;;5.00;5.00;;;;;;;;5117422;27;45798;-67
2022/08/31 00:26:46;;;;;;;;;5.00;5.00;;;;;;;;5112755;27;45670;-67
2022/08/31 00:29:11;;;;;;;;;5.67;5.67;;;;;;;;5119338;27;45757;-67
2022/08/31 00:31:37;;;;;;;;;5.00;4.00;;;;;;;;5113291;27;45663;-67
2022/08/31 00:34:02;;;;;;;;;8.00;6.00;;;;;;;;5122523;27;45807;-67
2022/08/31 00:36:27;;;;;;;;;4.33;4.33;;;;;;;;5117956;27;45363;-64
2022/08/31 00:38:53;;;;;;;;;5.33;5.00;;;;;;;;5124203;27;45302;-64
2022/08/31 00:41:20;;;;;;;;;5.67;4.67;;;;;;;;5119303;27;45389;-67
2022/08/31 00:43:53;;;;;;;;;8.00;7.00;;;;;;;;5117540;27;46239;-67
2022/08/31 00:46:26;;;;;;;;;7.00;6.00;;;;;;;;5111975;27;45518;-67
2022/08/31 00:48:57;;;;;;;;;7.67;5.33;;;;;;;;5118775;27;45339;-67
2022/08/31 00:51:23;;;;;;;;;7.67;5.00;;;;;;;;5113913;27;45548;-67
2022/08/31 00:53:48;;;;;;;;;6.00;4.33;;;;;;;;5120442;27;46987;-67
2022/08/31 00:56:14;;;;;;;;;5.00;5.00;;;;;;;;5112985;27;45355;-67
2022/08/31 00:58:39;;;;;;;;;6.33;6.33;;;;;;;;5123467;27;45394;-67
2022/08/31 01:01:06;;;;;;;;;5.00;5.00;;;;;;;;5116228;27;45439;-67
2022/08/31 01:03:31;;;;;;;;;7.00;7.00;;;;;;;;5124760;27;45463;-67
2022/08/31 01:05:57;;;;;;;;;6.00;4.00;;;;;;;;5117305;27;45354;-68
2022/08/31 01:08:22;;;;;;;;;7.67;6.00;;;;;;;;5121845;27;45450;-67
2022/08/31 01:10:47;;;;;;;;;5.00;5.00;;;;;;;;5120479;27;45469;-68
2022/08/31 01:13:13;;;;;;;;;6.00;4.00;;;;;;;;5123232;27;45609;-68
2022/08/31 01:15:43;;;;;;;;;7.00;5.67;;;;;;;;5114470;27;45300;-68
2022/08/31 01:18:09;;;;;;;;;6.00;6.00;;;;;;;;5115400;27;45401;-68
2022/08/31 01:20:52;;;;;;;;;8.00;7.33;;;;;;;;5110830;27;45694;-67
2022/08/31 01:23:17;;;;;;;;;7.00;4.00;;;;;;;;5108592;27;45542;-67
2022/08/31 01:25:44;;;;;;;;;3.33;3.33;;;;;;;;5113936;27;45465;-67
2022/08/31 01:28:10;;;;;;;;;5.00;5.00;;;;;;;;5121838;27;45567;-67
2022/08/31 01:30:35;;;;;;;;;5.00;5.00;;;;;;;;5118615;27;45289;-67
2022/08/31 01:33:00;;;;;;;;;6.00;5.00;;;;;;;;5112167;27;45497;-67
2022/08/31 01:35:26;;;;;;;;;5.33;5.33;;;;;;;;5114582;27;45757;-67
2022/08/31 01:37:52;;;;;;;;;5.00;5.00;;;;;;;;5115682;27;45348;-67
2022/08/31 01:40:17;;;;;;;;;6.33;5.33;;;;;;;;5116932;27;45411;-67
2022/08/31 01:42:42;;;;;;;;;5.00;5.00;;;;;;;;5117744;27;46122;-67
2022/08/31 01:45:08;;;;;;;;;10.67;7.00;;;;;;;;5120871;27;45448;-67
2022/08/31 01:47:33;;;;;;;;;5.00;5.00;;;;;;;;5119464;27;45552;-68
2022/08/31 01:49:58;;;;;;;;;6.00;6.00;;;;;;;;5109169;27;45150;-67
2022/08/31 01:52:26;;;;;;;;;6.00;6.00;;;;;;;;5112908;27;46323;-67
2022/08/31 01:54:52;;;;;;;;;7.33;6.33;;;;;;;;5112651;27;45443;-67
2022/08/31 01:57:17;;;;;;;;;5.33;5.33;;;;;;;;5112702;27;45358;-67
2022/08/31 01:59:42;;;;;;;;;4.00;4.00;;;;;;;;5115449;27;45283;-67
2022/08/31 02:02:07;;;;;;;;;6.33;4.33;;;;;;;;5113606;27;46194;-67
2022/08/31 02:04:32;;;;;;;;;6.33;6.33;;;;;;;;5115983;27;45639;-67
2022/08/31 02:06:59;;;;;;;;;9.00;6.67;;;;;;;;5118827;27;45272;-67
2022/08/31 02:09:24;;;;;;;;;8.00;7.00;;;;;;;;5120079;27;45342;-67
2022/08/31 02:11:49;;;;;;;;;5.33;5.33;;;;;;;;5120632;27;45948;-67
2022/08/31 02:14:16;;;;;;;;;4.67;4.67;;;;;;;;5120893;27;45809;-67
2022/08/31 02:16:41;;;;;;;;;5.00;5.00;;;;;;;;5111668;27;45310;-67
2022/08/31 02:19:07;;;;;;;;;6.00;4.00;;;;;;;;5110257;27;45673;-67
2022/08/31 02:21:33;;;;;;;;;3.00;3.00;;;;;;;;5110513;27;45532;-67
2022/08/31 02:23:58;;;;;;;;;7.67;6.33;;;;;;;;5105109;27;45408;-67
2022/08/31 02:26:23;;;;;;;;;6.00;6.00;;;;;;;;5110936;27;45617;-67
2022/08/31 02:28:48;;;;;;;;;5.33;5.33;;;;;;;;5121889;27;45593;-67
2022/08/31 02:31:14;;;;;;;;;4.67;4.67;;;;;;;;5109984;27;46119;-67
2022/08/31 02:33:39;;;;;;;;;6.00;6.00;;;;;;;;5116427;27;45517;-67
2022/08/31 02:36:04;;;;;;;;;6.33;6.33;;;;;;;;5113864;27;45322;-67
2022/08/31 02:38:30;;;;;;;;;6.00;5.67;;;;;;;;5118757;27;45663;-67
2022/08/31 02:40:55;;;;;;;;;9.00;8.33;;;;;;;;5115062;27;45790;-67
2022/08/31 02:43:20;;;;;;;;;8.00;8.00;;;;;;;;5119783;27;45372;-67
2022/08/31 02:45:46;;;;;;;;;5.33;5.00;;;;;;;;5107968;27;45450;-67
2022/08/31 02:48:11;;;;;;;;;7.00;7.00;;;;;;;;5120235;27;45397;-67
2022/08/31 02:50:37;;;;;;;;;8.00;8.00;;;;;;;;5110424;27;45499;-67
2022/08/31 02:53:02;;;;;;;;;7.00;7.00;;;;;;;;5120686;27;45510;-67
2022/08/31 02:55:27;;;;;;;;;8.00;6.33;;;;;;;;5119510;27;45424;-67
2022/08/31 02:57:53;;;;;;;;;5.67;5.00;;;;;;;;5123313;27;45677;-67
2022/08/31 03:00:20;;;;;;;;;6.00;5.33;;;;;;;;5117389;27;46116;-67
2022/08/31 03:02:45;;;;;;;;;9.00;6.33;;;;;;;;5119897;27;45394;-67
2022/08/31 03:05:11;;;;;;;;;8.00;8.00;;;;;;;;5118432;27;45367;-67
2022/08/31 03:07:37;;;;;;;;;7.00;7.00;;;;;;;;5114973;27;45402;-67
2022/08/31 03:10:04;;;;;;;;;7.00;7.00;;;;;;;;5117117;27;45441;-67
2022/08/31 03:12:29;;;;;;;;;7.00;5.67;;;;;;;;5118953;27;45317;-67
2022/08/31 03:14:54;;;;;;;;;4.33;4.00;;;;;;;;5108965;27;45263;-67
2022/08/31 03:17:19;;;;;;;;;5.33;5.00;;;;;;;;5120591;27;45783;-67
2022/08/31 03:19:44;;;;;;;;;6.67;6.67;;;;;;;;5119890;27;45468;-68
2022/08/31 03:22:12;;;;;;;;;7.00;5.67;;;;;;;;5110418;27;45424;-67
2022/08/31 03:24:37;;;;;;;;;8.33;8.33;;;;;;;;5117183;27;45480;-67
2022/08/31 03:27:02;;;;;;;;;8.00;6.33;;;;;;;;5111106;27;45366;-67
2022/08/31 03:29:27;;;;;;;;;11.00;7.00;;;;;;;;5119130;27;46626;-67
2022/08/31 03:31:53;;;;;;;;;7.00;5.00;;;;;;;;5117048;27;45554;-68
2022/08/31 03:34:18;;;;;;;;;9.67;6.33;;;;;;;;5125972;27;45592;-67
2022/08/31 03:36:43;;;;;;;;;6.00;6.00;;;;;;;;5119961;27;45371;-67
2022/08/31 03:39:08;;;;;;;;;7.67;5.67;;;;;;;;5119540;27;45405;-68
2022/08/31 03:41:33;;;;;;;;;7.33;6.00;;;;;;;;5112569;27;45434;-67
2022/08/31 03:44:00;;;;;;;;;5.00;5.00;;;;;;;;5118543;27;45371;-67
2022/08/31 03:46:26;;;;;;;;;7.67;6.00;;;;;;;;5114587;27;45442;-67
2022/08/31 03:48:52;;;;;;;;;8.67;7.00;;;;;;;;5120869;27;45923;-67
2022/08/31 03:51:18;;;;;;;;;8.33;7.67;;;;;;;;5117171;27;45664;-67
2022/08/31 03:53:44;;;;;;;;;7.00;6.33;;;;;;;;5125166;27;45235;-68
2022/08/31 03:56:09;;;;;;;;;7.00;7.00;;;;;;;;5119527;27;45288;-67
2022/08/31 03:58:34;;;;;;;;;8.00;8.00;;;;;;;;5122791;27;45376;-67
2022/08/31 04:01:00;;;;;;;;;8.00;8.00;;;;;;;;5124879;27;45353;-67
2022/08/31 04:03:25;;;;;;;;;8.67;6.00;;;;;;;;5126858;27;45266;-66
2022/08/31 04:05:50;;;;;;;;;6.00;6.00;;;;;;;;5116316;27;45435;-66
2022/08/31 04:08:16;;;;;;;;;7.00;7.00;;;;;;;;5117966;27;45583;-67
2022/08/31 04:10:42;;;;;;;;;11.67;7.33;;;;;;;;5114324;27;45359;-66
2022/08/31 04:13:08;;;;;;;;;7.33;7.33;;;;;;;;5126531;27;45624;-67
2022/08/31 04:15:35;;;;;;;;;9.67;6.00;;;;;;;;5123653;27;45469;-66
2022/08/31 04:18:00;;;;;;;;;8.00;6.00;;;;;;;;5114718;27;45446;-66
2022/08/31 04:20:25;;;;;;;;;9.33;7.33;;;;;;;;5112679;27;45503;-66
2022/08/31 04:22:50;;;;;;;;;12.00;10.67;;;;;;;;5117863;27;45415;-66
2022/08/31 04:25:15;;;;;;;;;8.00;6.67;;;;;;;;5122539;27;45406;-66
2022/08/31 04:27:41;;;;;;;;;6.00;6.00;;;;;;;;5118871;27;45471;-66
2022/08/31 04:30:06;;;;;;;;;9.67;9.67;;;;;;;;5118615;27;45378;-66
2022/08/31 04:32:32;;;;;;;;;7.67;7.67;;;;;;;;5118471;27;45402;-66
2022/08/31 04:34:57;;;;;;;;;6.00;6.00;;;;;;;;5123851;27;45707;-66
2022/08/31 04:37:23;;;;;;;;;6.67;6.67;;;;;;;;5119689;27;45923;-66
2022/08/31 04:39:48;;;;;;;;;7.67;7.67;;;;;;;;5117640;27;45375;-66
2022/08/31 04:42:13;;;;;;;;;13.33;11.33;;;;;;;;5120116;27;45358;-66
2022/08/31 04:44:38;;;;;;;;;13.33;11.33;;;;;;;;5122592;27;45350;-67
2022/08/31 04:47:03;;;;;;;;;12.67;8.00;;;;;;;;5118557;27;45481;-67
2022/08/31 04:49:29;;;;;;;;;10.00;10.00;;;;;;;;5119972;27;45282;-66
2022/08/31 04:51:54;;;;;;;;;9.67;9.00;;;;;;;;5114142;27;45416;-65
2022/08/31 04:54:19;;;;;;;;;12.33;7.67;;;;;;;;5114319;27;45743;-66
2022/08/31 04:56:45;;;;;;;;;7.00;6.00;;;;;;;;5113183;27;45668;-66
2022/08/31 04:59:12;;;;;;;;;10.33;10.00;;;;;;;;5122367;27;45418;-67
2022/08/31 05:01:39;;;;;;;;;12.33;9.33;;;;;;;;5118934;27;45628;-66
2022/08/31 05:04:05;;;;;;;;;9.00;7.67;;;;;;;;5115667;27;45387;-67
2022/08/31 05:06:32;;;;;;;;;9.00;8.00;;;;;;;;5117232;27;45477;-67
2022/08/31 05:08:58;;;;;;;;;9.33;6.00;;;;;;;;5117822;27;45965;-66
2022/08/31 05:11:25;;;;;;;;;9.00;9.00;;;;;;;;5112236;27;45347;-66
2022/08/31 05:13:51;;;;;;;;;5.00;4.67;;;;;;;;5123191;27;45326;-67
2022/08/31 05:16:16;;;;;;;;;8.33;7.67;;;;;;;;5120623;27;45459;-67
2022/08/31 05:18:42;;;;;;;;;11.00;7.33;;;;;;;;5120798;27;45383;-68
2022/08/31 05:21:09;;;;;;;;;9.00;9.00;;;;;;;;5119686;27;45606;-67
2022/08/31 05:23:34;;;;;;;;;8.67;8.00;;;;;;;;5116752;27;45544;-67
2022/08/31 05:25:59;;;;;;;;;8.33;8.33;;;;;;;;5111033;27;45419;-67
2022/08/31 05:28:24;;;;;;;;;8.67;8.67;;;;;;;;5120937;27;45455;-66
2022/08/31 05:30:49;;;;;;;;;10.33;7.00;;;;;;;;5115886;27;45456;-66
2022/08/31 05:33:15;;;;;;;;;6.33;6.33;;;;;;;;5118692;27;45328;-68
2022/08/31 05:35:40;;;;;;;;;12.33;12.00;;;;;;;;5113520;27;45484;-68
2022/08/31 05:38:06;;;;;;;;;12.50;12.25;;;;;;;;5117302;27;45321;-67
2022/08/31 05:40:31;;;;;;;;;10.67;10.67;;;;;;;;5114994;27;45629;-68
2022/08/31 05:42:58;;;;;;;;;10.67;10.67;;;;;;;;5114915;27;45441;-68
2022/08/31 05:45:23;;;;;;;;;7.67;7.33;;;;;;;;5117292;27;45343;-68
2022/08/31 05:47:48;;;;;;;;;10.00;10.00;;;;;;;;5119946;27;45286;-68
2022/08/31 05:50:14;;;;;;;;;10.00;10.00;;;;;;;;5117560;27;45191;-68
2022/08/31 05:52:39;;;;;;;;;8.67;8.00;;;;;;;;5112664;27;45402;-67
2022/08/31 05:55:04;;;;;;;;;9.67;8.33;;;;;;;;5108498;27;45371;-65
2022/08/31 05:57:29;;;;;;;;;12.25;12.25;;;;;;;;5111932;27;45317;-66
2022/08/31 05:59:55;;;;;;;;;13.00;8.00;;;;;;;;5112320;27;45325;-66
2022/08/31 06:02:20;;;;;;;;;8.33;8.33;;;;;;;;5111610;27;45684;-67
2022/08/31 06:04:45;;;;;;;;;10.00;9.33;;;;;;;;5123822;27;45327;-66
2022/08/31 06:07:10;;;;;;;;;7.67;5.67;;;;;;;;5117041;27;45418;-66
2022/08/31 06:09:37;;;;;;;;;10.67;8.00;;;;;;;;5115118;27;45407;-67
2022/08/31 06:12:04;;;;;;;;;11.67;8.00;;;;;;;;5117636;27;45614;-68
2022/08/31 06:14:29;;;;;;;;;13.67;12.33;;;;;;;;5118567;27;45386;-67
2022/08/31 06:16:55;;;;;;;;;13.00;11.00;;;;;;;;5119947;27;45354;-68
2022/08/31 06:19:20;;;;;;;;;8.00;8.00;;;;;;;;5116824;27;45494;-67
2022/08/31 06:21:48;;;;;;;;;12.00;7.67;;;;;;;;5115876;27;45363;-67
2022/08/31 06:24:13;;;;;;;;;8.67;7.33;;;;;;;;5117236;27;46339;-67
2022/08/31 06:26:38;;;;;;;;;8.00;8.00;;;;;;;;5113056;27;45432;-68
2022/08/31 06:29:04;;;;;;;;;10.00;7.67;;;;;;;;5121568;27;45305;-67
2022/08/31 06:31:37;;;;;;;;;8.67;8.67;;;;;;;;5109203;27;45470;-68
2022/08/31 06:34:03;;;;;;;;;12.67;10.67;;;;;;;;5113732;27;48239;-68
2022/08/31 06:36:29;;;;;;;;;9.00;8.00;;;;;;;;5111322;27;45280;-68
2022/08/31 06:38:57;;;;;;;;;9.33;7.00;;;;;;;;5117508;27;45455;-67
2022/08/31 06:41:24;;;;;;;;;10.33;8.00;;;;;;;;5111102;27;45339;-67
2022/08/31 06:43:49;;;;;;;;;9.00;6.33;;;;;;;;5117352;27;46314;-67
2022/08/31 06:46:16;;;;;;;;;13.33;9.00;;;;;;;;5113253;27;45455;-67
2022/08/31 06:48:42;;;;;;;;;14.00;12.33;;;;;;;;5121660;27;45431;-67
2022/08/31 06:51:08;;;;;;;;;11.67;9.00;;;;;;;;5115128;27;45426;-67
2022/08/31 06:53:34;;;;;;;;;8.33;8.33;;;;;;;;5122807;27;45596;-67
2022/08/31 06:56:06;;;;;;;;;10.00;8.67;;;;;;;;5116369;27;45302;-68
2022/08/31 06:58:32;;;;;;;;;9.33;8.67;;;;;;;;5123524;27;45344;-66
2022/08/31 07:01:03;;;;;;;;;8.33;8.33;;;;;;;;5115869;27;45663;-66
2022/08/31 07:03:34;;;;;;;;;11.67;8.67;;;;;;;;5111133;27;45423;-66
2022/08/31 07:06:03;;;;;;;;;13.00;12.33;;;;;;;;5109386;27;45498;-67
2022/08/31 07:08:28;;;;;;;;;8.67;8.00;;;;;;;;5117577;27;45399;-67
2022/08/31 07:10:53;;;;;;;;;11.33;8.67;;;;;;;;5113529;27;45366;-68
2022/08/31 07:13:18;;;;;;;;;9.33;7.33;;;;;;;;5113194;27;46405;-66
2022/08/31 07:15:44;;;;;;;;;15.00;12.33;;;;;;;;5112994;27;45608;-66
2022/08/31 07:18:09;;;;;;;;;8.67;8.00;;;;;;;;5115099;27;45278;-67
2022/08/31 07:20:34;;;;;;;;;11.00;10.00;;;;;;;;5114815;27;45610;-67
2022/08/31 07:22:59;;;;;;;;;9.00;9.00;;;;;;;;5118098;27;45515;-67
2022/08/31 07:25:25;;;;;;;;;13.33;13.33;;;;;;;;5121164;27;45363;-67
2022/08/31 07:27:54;;;;;;;;;11.00;11.00;;;;;;;;5119855;27;45432;-67
2022/08/31 07:30:19;;;;;;;;;13.33;13.33;;;;;;;;5124107;27;45290;-68
2022/08/31 07:32:45;;;;;;;;;13.00;11.33;;;;;;;;5114726;27;46383;-67
2022/08/31 07:35:10;;;;;;;;;12.00;9.67;;;;;;;;5119740;27;46406;-66
2022/08/31 07:43:03;;;;;;;;;9.33;9.33;;;;;;;;5118470;27;45315;-67
2022/08/31 07:45:29;;;;;;;;;14.50;13.75;;;;;;;;5111992;27;45335;-67
2022/08/31 07:47:55;;;;;;;;;16.00;14.00;;;;;;;;5125978;27;45353;-66
2022/08/31 07:50:21;;;;;;;;;15.00;13.00;;;;;;;;5120156;27;45323;-66
2022/08/31 07:52:52;;;;;;;;;10.33;10.00;;;;;;;;5118884;27;46274;-67
2022/08/31 07:55:18;;;;;;;;;16.00;13.00;;;;;;;;5119231;27;45263;-66
2022/08/31 07:57:44;;;;;;;;;16.33;16.33;;;;;;;;5123425;27;45307;-66
2022/08/31 08:00:09;;;;;;;;;11.33;11.00;;;;;;;;5110651;27;45241;-67
2022/08/31 08:02:38;;;;;;;;;16.33;15.00;;;;;;;;5120272;27;45365;-67
2022/08/31 08:05:06;;;;;;;;;11.33;11.00;;;;;;;;5121184;27;45222;-67
2022/08/31 08:07:32;;;;;;;;;13.67;12.67;;;;;;;;5123108;27;45368;-67
2022/08/31 08:09:57;;;;;;;;;10.00;7.00;;;;;;;;5121956;27;45443;-67
2022/08/31 08:12:24;;;;;;;;;11.67;11.67;;;;;;;;5118794;27;46279;-66
2022/08/31 08:14:51;;;;;;;;;13.67;12.67;;;;;;;;5125676;27;45491;-66
2022/08/31 08:17:16;;;;;;;;;12.33;10.33;;;;;;;;5113828;27;45496;-66
2022/08/31 08:19:41;;;;;;;;;7.00;6.33;;;;;;;;5112916;27;45292;-67
2022/08/31 08:22:07;;;;;;;;;11.00;11.00;;;;;;;;5120315;27;45602;-66
2022/08/31 08:24:32;;;;;;;;;13.00;9.67;;;;;;;;5111753;27;45371;-66
2022/08/31 08:26:57;;;;;;;;;11.67;10.00;;;;;;;;5117167;27;45269;-66
2022/08/31 08:29:23;;;;;;;;;11.67;10.33;;;;;;;;5123581;27;45435;-66
2022/08/31 08:31:52;;;;;;;;;10.33;9.33;;;;;;;;5117838;27;45852;-65
2022/08/31 08:34:19;;;;;;;;;8.33;7.00;;;;;;;;5115315;27;45288;-67
2022/08/31 08:36:44;;;;;;;;;13.00;13.00;;;;;;;;5112330;27;45286;-65
2022/08/31 08:39:11;;;;;;;;;10.67;10.67;;;;;;;;5119349;27;45863;-65
2022/08/31 08:41:38;;;;;;;;;9.33;9.33;;;;;;;;5111289;27;45399;-68
2022/08/31 08:44:06;;;;;;;;;13.00;13.00;;;;;;;;5117347;27;45615;-66
2022/08/31 08:46:42;;;;;;;;;9.00;9.00;;;;;;;;5112647;27;45455;-66
2022/08/31 08:49:23;;;;;;;;;11.33;10.00;;;;;;;;5123864;27;45403;-66
2022/08/31 08:51:50;;;;;;;;;9.33;8.00;;;;;;;;5120798;27;45449;-65
2022/08/31 08:54:23;;;;;;;;;11.00;11.00;;;;;;;;5122678;27;45258;-66
2022/08/31 08:56:48;;;;;;;;;11.00;11.00;;;;;;;;5118638;27;45399;-66
2022/08/31 08:59:14;;;;;;;;;8.67;8.67;;;;;;;;5121568;27;45320;-66
2022/08/31 09:01:41;;;;;;;;;10.00;7.33;;;;;;;;5112894;27;45781;-65
2022/08/31 09:04:16;;;;;;;;;10.00;10.00;;;;;;;;5123594;27;45376;-66
2022/08/31 09:06:41;;;;;;;;;9.67;9.67;;;;;;;;5114547;27;45572;-66
2022/08/31 09:09:19;;;;;;;;;11.00;11.00;;;;;;;;5123506;27;45329;-66
2022/08/31 09:11:48;;;;;;;;;10.33;10.33;;;;;;;;5113652;27;46145;-66
2022/08/31 09:14:20;;;;;;;;;11.67;10.00;;;;;;;;5112430;27;45497;-66
2022/08/31 09:16:48;;;;;;;;;13.50;12.75;;;;;;;;5115243;27;45461;-67
2022/08/31 09:19:16;;;;;;;;;14.67;12.33;;;;;;;;5114352;27;45537;-66
2022/08/31 09:21:44;;;;;;;;;9.00;8.00;;;;;;;;5121862;27;45477;-67
2022/08/31 09:24:11;;;;;;;;;10.00;9.00;;;;;;;;5120836;27;45190;-67
2022/08/31 09:26:55;;;;;;;;;12.00;10.67;;;;;;;;5114256;27;45445;-67
2022/08/31 09:29:23;;;;;;;;;12.00;11.00;;;;;;;;5121616;27;45441;-67
2022/08/31 09:31:57;;;;;;;;;5.00;5.00;;;;;;;;5111859;27;46599;-67
2022/08/31 09:34:27;;;;;;;;;12.33;11.33;;;;;;;;5110477;27;45492;-67
2022/08/31 09:36:54;;;;;;;;;15.33;14.00;;;;;;;;5115466;27;45325;-67
2022/08/31 09:39:21;;;;;;;;;8.75;8.75;;;;;;;;5117495;27;45259;-67
2022/08/31 09:41:47;;;;;;;;;13.00;11.33;;;;;;;;5112755;27;45289;-67
2022/08/31 09:44:19;;;;;;;;;9.67;8.00;;;;;;;;5120048;27;45343;-67
2022/08/31 09:46:49;;;;;;;;;8.33;8.33;;;;;;;;5113219;27;45262;-67
2022/08/31 09:49:21;;;;;;;;;8.33;8.33;;;;;;;;5122950;27;45372;-67
2022/08/31 09:51:48;;;;;;;;;8.00;8.00;;;;;;;;5115662;27;46307;-67
2022/08/31 09:56:57;;;;;;;;;12.00;11.67;;;;;;;;5107727;27;45252;-66
2022/08/31 09:59:42;;;;;;;;;9.67;9.67;;;;;;;;5109726;27;45560;-66
2022/08/31 10:02:28;;;;;;;;;6.67;6.67;;;;;;;;5109382;27;46527;-66
2022/08/31 10:04:54;;;;;;;;;11.00;9.67;;;;;;;;5111798;27;45321;-67
2022/08/31 10:07:42;;;;;;;;;11.75;11.75;;;;;;;;5112284;27;45307;-67
2022/08/31 10:10:12;;;;;;;;;10.67;9.33;;;;;;;;5114623;27;45304;-67
2022/08/31 10:12:46;;;;;;;;;10.00;10.00;;;;;;;;5115921;27;46408;-67
2022/08/31 10:15:31;;;;;;;;;11.00;10.33;;;;;;;;5115092;27;45205;-67
2022/08/31 10:18:10;;;;;;;;;8.67;8.67;;;;;;;;5118232;27;45534;-67
2022/08/31 10:20:38;;;;;;;;;9.67;9.67;;;;;;;;5120349;27;45499;-67
2022/08/31 10:23:25;;;;;;;;;7.67;6.00;;;;;;;;5117854;27;45518;-67
2022/08/31 10:25:57;;;;;;;;;10.67;9.00;;;;;;;;5119378;27;45341;-67
2022/08/31 10:28:30;;;;;;;;;10.00;10.00;;;;;;;;5114697;27;45464;-67
2022/08/31 10:31:09;;;;;;;;;7.00;7.00;;;;;;;;5106435;27;45495;-67
2022/08/31 10:36:24;;;;;;;;;8.67;8.67;;;;;;;;5110264;27;45573;-67
2022/08/31 10:38:51;;;;;;;;;10.67;10.00;;;;;;;;5113559;27;45415;-67
2022/08/31 10:41:16;;;;;;;;;8.00;8.00;;;;;;;;5109170;27;45635;-67
2022/08/31 10:43:45;;;;;;;;;12.00;10.33;;;;;;;;5117531;27;45435;-67
2022/08/31 10:46:10;;;;;;;;;9.33;8.00;;;;;;;;5112009;27;45393;-67
2022/08/31 10:48:42;;;;;;;;;11.50;10.50;;;;;;;;5118694;27;45309;-67
2022/08/31 10:51:08;;;;;;;;;13.00;11.67;;;;;;;;5116312;27;45515;-67
2022/08/31 10:53:39;;;;;;;;;10.33;10.00;;;;;;;;5122801;27;45393;-67
2022/08/31 10:56:15;;;;;;;;;9.00;9.00;;;;;;;;5117218;27;45395;-67
2022/08/31 10:59:01;;;;;;;;;18.00;14.00;;;;;;;;5120514;27;45426;-67
2022/08/31 11:01:32;;;;;;;;;10.33;9.00;;;;;;;;5116679;27;45552;-67
2022/08/31 11:04:03;;;;;;;;;10.00;9.67;;;;;;;;5112547;27;45646;-67
2022/08/31 11:06:34;;;;;;;;;9.33;9.33;;;;;;;;5115263;27;45429;-67
2022/08/31 11:09:11;;;;;;;;;12.00;10.00;;;;;;;;5110746;27;45314;-67
2022/08/31 11:11:42;;;;;;;;;11.25;11.25;;;;;;;;5117081;27;45585;-67
2022/08/31 11:14:26;;;;;;;;;11.00;11.00;;;;;;;;5116280;27;45377;-66
2022/08/31 11:16:51;;;;;;;;;10.50;10.50;;;;;;;;5114115;27;45407;-67
2022/08/31 11:19:16;;;;;;;;;13.00;13.00;;;;;;;;5121700;27;45300;-67
2022/08/31 11:21:49;;;;;;;;;8.50;8.50;;;;;;;;5113900;27;45588;-67
2022/08/31 11:24:18;;;;;;;;;10.00;10.00;;;;;;;;5116744;27;45490;-67
2022/08/31 11:26:46;;;;;;;;;9.00;8.00;;;;;;;;5112040;27;45365;-67
2022/08/31 11:29:18;;;;;;;;;9.00;9.00;;;;;;;;5115097;27;45408;-67
2022/08/31 11:31:44;;;;;;;;;9.00;9.00;;;;;;;;5109203;27;45432;-67
2022/08/31 11:34:15;;;;;;;;;10.00;8.33;;;;;;;;5118127;27;45415;-67
2022/08/31 11:36:43;;;;;;;;;11.00;11.00;;;;;;;;5115452;27;45349;-67
2022/08/31 11:39:08;;;;;;;;;8.67;8.67;;;;;;;;5120775;27;45395;-67
2022/08/31 11:41:35;;;;;;;;;13.00;10.00;;;;;;;;5115598;27;45471;-65
2022/08/31 11:44:03;;;;;;;;;9.00;8.67;;;;;;;;5111391;27;46495;-65
2022/08/31 11:46:38;;;;;;;;;8.00;7.67;;;;;;;;5109437;27;46202;-65
2022/08/31 11:49:04;;;;;;;;;11.00;11.00;;;;;;;;5111599;27;45418;-67
2022/08/31 11:51:41;;;;;;;;;7.00;6.50;;;;;;;;5114766;27;45398;-66
2022/08/31 11:54:13;;;;;;;;;15.75;11.00;;;;;;;;5122769;27;45462;-66
2022/08/31 11:56:39;;;;;;;;;11.00;10.00;;;;;;;;5120826;27;45401;-66
2022/08/31 11:59:17;;;;;;;;;11.00;9.75;;;;;;;;5125101;27;45232;-66
2022/08/31 12:01:43;;;;;;;;;7.75;7.75;;;;;;;;5119186;27;45438;-66
2022/08/31 12:04:29;;;;;;;;;9.00;9.00;;;;;;;;5123721;27;46211;-66
2022/08/31 12:07:02;;;;;;;;;15.50;12.00;;;;;;;;5119689;27;45405;-66
2022/08/31 12:09:31;;;;;;;;;10.67;10.67;;;;;;;;5123761;27;45357;-66
2022/08/31 12:11:58;;;;;;;;;8.00;8.00;;;;;;;;5122887;27;45527;-66
2022/08/31 12:14:48;;;;;;;;;13.00;10.00;;;;;;;;5120056;27;45431;-66
2022/08/31 12:17:29;;;;;;;;;9.50;9.50;;;;;;;;5113942;27;45375;-66
2022/08/31 12:20:06;;;;;;;;;9.50;8.50;;;;;;;;5115602;27;45424;-66
2022/08/31 12:25:39;;;;;;;;;8.00;8.00;;;;;;;;5124330;27;45476;-66
2022/08/31 12:28:10;;;;;;;;;9.50;9.50;;;;;;;;5120027;27;45455;-66
2022/08/31 12:30:46;;;;;;;;;9.00;7.50;;;;;;;;5120265;27;45567;-66
2022/08/31 12:33:16;;;;;;;;;9.00;9.00;;;;;;;;5124916;27;45602;-66
2022/08/31 12:35:45;;;;;;;;;11.50;10.75;;;;;;;;5122400;27;45742;-67
2022/08/31 12:38:16;;;;;;;;;11.50;11.25;;;;;;;;5117081;27;45694;-67
2022/08/31 12:40:43;;;;;;;;;11.00;9.75;;;;;;;;5116727;27;45338;-68
2022/08/31 12:43:12;;;;;;;;;8.50;8.50;;;;;;;;5121830;27;45406;-67
2022/08/31 12:45:45;;;;;;;;;9.67;8.00;;;;;;;;5119783;27;47001;-67
2022/08/31 12:48:10;;;;;;;;;12.50;10.25;;;;;;;;5121386;27;45333;-67
2022/08/31 12:50:36;;;;;;;;;10.00;10.00;;;;;;;;5121535;27;45231;-68
2022/08/31 12:53:04;;;;;;;;;9.00;9.00;;;;;;;;5121224;27;45233;-68
2022/08/31 12:55:29;;;;;;;;;6.75;6.75;;;;;;;;5122217;27;45500;-68
2022/08/31 12:58:03;;;;;;;;;12.60;10.80;;;;;;;;5120084;27;45285;-67
2022/08/31 13:00:30;;;;;;;;;12.75;11.00;;;;;;;;5122524;27;45549;-66
2022/08/31 13:02:58;;;;;;;;;11.25;10.25;;;;;;;;5121601;27;45695;-68
2022/08/31 13:05:23;;;;;;;;;12.25;12.25;;;;;;;;5122843;27;45479;-67
2022/08/31 13:07:48;;;;;;;;;12.20;12.20;;;;;;;;5121353;27;45377;-68
2022/08/31 13:10:22;;;;;;;;;15.25;14.75;;;;;;;;5123935;27;45344;-68
2022/08/31 13:12:48;;;;;;;;;12.25;12.25;;;;;;;;5124473;27;45494;-67
2022/08/31 13:15:21;;;;;;;;;12.50;11.75;;;;;;;;5122107;27;46986;-68
2022/08/31 13:17:47;;;;;;;;;13.50;11.25;;;;;;;;5119571;27;45439;-68
2022/08/31 13:20:16;;;;;;;;;9.75;9.75;;;;;;;;5124052;27;45651;-67
2022/08/31 13:22:47;;;;;;;;;14.75;13.00;;;;;;;;5120036;27;45420;-68
2022/08/31 13:25:24;;;;;;;;;11.75;11.75;;;;;;;;5122398;27;46739;-68
2022/08/31 13:27:50;;;;;;;;;15.25;12.00;;;;;;;;5118728;27;45408;-67
2022/08/31 13:30:18;;;;;;;;;11.25;11.25;;;;;;;;5123172;27;45475;-68
2022/08/31 13:32:44;;;;;;;;;11.50;10.25;;;;;;;;5119268;27;45342;-67
2022/08/31 13:35:13;;;;;;;;;12.50;12.00;;;;;;;;5122354;27;48237;-68
2022/08/31 13:37:41;;;;;;;;;9.00;8.75;;;;;;;;5115434;27;45383;-65
2022/08/31 13:40:09;;;;;;;;;11.75;11.25;;;;;;;;5114960;27;45340;-67
2022/08/31 13:42:41;;;;;;;;;14.00;14.00;;;;;;;;5118366;27;45552;-68
2022/08/31 13:45:36;;;;;;;;;11.00;11.00;;;;;;;;5120237;27;45983;-68
2022/08/31 13:48:03;;;;;;;;;9.00;9.00;;;;;;;;5102968;27;45565;-65
2022/08/31 13:50:32;;;;;;;;;10.75;10.25;;;;;;;;5121789;27;45434;-68
2022/08/31 13:52:58;;;;;;;;;11.25;10.25;;;;;;;;5115368;27;45383;-67
2022/08/31 13:55:32;;;;;;;;;10.50;10.00;;;;;;;;5118528;27;46523;-65
2022/08/31 13:57:59;;;;;;;;;13.00;11.25;;;;;;;;5121564;27;45410;-65
2022/08/31 14:00:28;;;;;;;;;14.75;14.75;;;;;;;;5119083;27;45720;-66
2022/08/31 14:02:54;;;;;;;;;11.75;10.50;;;;;;;;5119292;27;45251;-65
2022/08/31 14:05:30;;;;;;;;;23.50;22.00;;;;;;;;5122015;27;45560;-65
2022/08/31 14:07:57;;;;;;;;;19.50;17.25;;;;;;;;5120855;27;45501;-65
2022/08/31 14:10:24;;;;;;;;;16.00;16.00;;;;;;;;5121421;27;45466;-67
2022/08/31 14:12:58;;;;;;;;;14.50;14.50;;;;;;;;5118676;27;45470;-65
2022/08/31 14:15:27;;;;;;;;;12.50;11.75;;;;;;;;5119479;27;46846;-65
2022/08/31 14:17:57;;;;;;;;;12.75;12.75;;;;;;;;5114293;27;45282;-65
2022/08/31 14:20:36;;;;;;;;;13.00;12.25;;;;;;;;5114574;27;45319;-65
2022/08/31 14:23:23;;;;;;;;;12.75;12.25;;;;;;;;5116926;27;45261;-67
2022/08/31 14:25:49;;;;;;;;;13.25;13.25;;;;;;;;5118479;27;45328;-67
2022/08/31 14:28:14;;;;;;;;;12.50;12.50;;;;;;;;5118238;27;45460;-67
2022/08/31 14:30:39;;;;;;;;;14.00;12.75;;;;;;;;5120258;27;45805;-67
2022/08/31 14:33:10;;;;;;;;;13.00;13.00;;;;;;;;5119874;27;45659;-67
2022/08/31 14:35:36;;;;;;;;;14.50;13.75;;;;;;;;5107835;27;46393;-67
2022/08/31 14:38:01;;;;;;;;;11.50;11.50;;;;;;;;5118094;27;45248;-67
2022/08/31 14:40:27;;;;;;;;;15.75;14.25;;;;;;;;5110905;27;45482;-67
2022/08/31 14:42:52;;;;;;;;;13.75;13.75;;;;;;;;5116631;27;45270;-67
2022/08/31 14:45:17;;;;;;;;;13.25;13.00;;;;;;;;5113291;27;45571;-67
2022/08/31 14:47:45;;;;;;;;;17.25;16.50;;;;;;;;5114500;27;45286;-67
2022/08/31 14:50:11;;;;;;;;;12.75;11.25;;;;;;;;5116597;27;45299;-67
2022/08/31 14:52:41;;;;;;;;;11.50;11.50;;;;;;;;5117298;27;45379;-67